Portada
METAR-TAF:

METAR-TAF

Aeroports :

Ranong, Tailàndia

latitud: 09-59N, longitud: 098-37E, altitud: 7 m

Observació

L'informe es va fer fa 35 minuts, a les 05:00 UTC
Vent 7 kt del Sud-Est, variant entre Nord-Est i Sud
Temperatura 33°C
Humitat 56%
Pressió 1014 hPa
Visibilitat 10 km o més
Núvols disperses a una alçada de 2500 ft

METAR: VTSR 210500Z 13007KT 050V170 9999 SCT025 33/23 Q1014 NOSIG

Hora: 12:35 (05:35 UTC)

Pronòstic

L'informe es va fer fa 6 hores i 35 minuts, a les 23:00 UTC
Pronòstic vàlid del 21 a les 00 UTC al 21 a les 24 UTC
Vent 10 kt del Est
Visibilitat 10 km o més
Escasses núvols a una alçada de 2000 ft
Temporalment
l' 21 a les 00 UTC al 21 a les 06 UTC
Vent 15 kt del Est amb ràfegues de 25 kt

TAF: VTSR 202300Z 2100/2124 10010KT 9999 FEW020 TEMPO 2100/2106 10015G25KT

Observacions i pronòstics meteorològics de més de 4000 aeroports (METAR i TAF).

Les estacions disponibles són els punts grocs i vermells al mapa.

Posi el ratolí al punt desitjat per veure el nom de l'estació.

Feu clic per veure les observacions i els pronòstics meteorològics.

Per canviar el mapa: feu clic els botons verds amb una creu de color negre per apropar; al botó verd amb un guió per allunyar la imatge; o en les fletxes verdes per a mapes adjacents.


METAR-TAF: